createdAt,value
2023-11-14T00:02:25.713Z,99255.23
2023-11-14T00:05:13.559Z,99247.80
2023-11-14T00:08:00.330Z,99242.70
2023-11-14T00:10:47.944Z,99235.72
2023-11-14T00:13:34.950Z,99228.70
2023-11-14T00:16:22.080Z,99224.20
2023-11-14T00:19:09.770Z,99219.53
2023-11-14T00:21:56.229Z,99215.31
2023-11-14T00:24:46.893Z,99213.83
2023-11-14T00:27:33.672Z,99216.30
2023-11-14T00:30:20.682Z,99214.98
2023-11-14T00:33:08.074Z,99215.23
2023-11-14T00:35:57.799Z,99216.41
2023-11-14T00:38:44.812Z,99213.34
2023-11-14T00:41:34.671Z,99216.55
2023-11-14T00:44:23.377Z,99207.11
2023-11-14T00:47:12.934Z,99200.09
2023-11-14T00:49:59.597Z,99201.02
2023-11-14T00:52:47.918Z,99189.66
2023-11-14T00:55:35.331Z,99196.63
2023-11-14T00:58:23.179Z,99194.77
2023-11-14T01:01:09.972Z,99193.41
2023-11-14T01:03:58.785Z,99188.39
2023-11-14T01:06:45.852Z,99184.08
2023-11-14T01:09:32.639Z,99190.30
2023-11-14T01:12:19.461Z,99180.77
2023-11-14T01:15:07.039Z,99171.63
2023-11-14T01:17:53.496Z,99170.15
2023-11-14T01:20:40.233Z,99159.91
2023-11-14T01:23:27.434Z,99172.88
2023-11-14T01:26:14.427Z,99162.13
2023-11-14T01:29:01.439Z,99155.61
2023-11-14T01:31:49.484Z,99152.89
2023-11-14T01:34:36.678Z,99158.16
2023-11-14T01:37:24.402Z,99160.97
2023-11-14T01:40:11.801Z,99161.64
2023-11-14T01:43:04.672Z,99158.30
2023-11-14T01:45:52.703Z,99152.95
2023-11-14T01:48:39.822Z,99147.90
2023-11-14T01:51:27.143Z,99144.40
2023-11-14T01:54:15.949Z,99141.73
2023-11-14T01:57:03.328Z,99135.68
2023-11-14T01:59:50.843Z,99136.84
2023-11-14T02:02:37.705Z,99121.20
2023-11-14T02:05:24.817Z,99112.69
2023-11-14T02:08:11.958Z,99115.65
2023-11-14T02:10:59.742Z,99112.35
2023-11-14T02:13:46.859Z,99113.67
2023-11-14T02:16:54.442Z,99110.25
2023-11-14T02:19:42.290Z,99129.95
2023-11-14T02:22:31.979Z,99127.44
2023-11-14T02:25:20.132Z,99118.38
2023-11-14T02:28:07.689Z,99119.39
2023-11-14T02:30:55.082Z,99126.27
2023-11-14T02:33:42.054Z,99129.23
2023-11-14T02:36:31.890Z,99135.54
2023-11-14T02:39:18.839Z,99137.44
2023-11-14T02:42:06.652Z,99137.36
2023-11-14T02:44:53.979Z,99126.30
2023-11-14T02:47:41.310Z,99128.07
2023-11-14T02:50:30.757Z,99122.09
2023-11-14T02:53:17.382Z,99113.86
2023-11-14T02:56:05.870Z,99119.63
2023-11-14T02:58:52.225Z,99117.48
2023-11-14T03:01:39.636Z,99118.35
2023-11-14T03:04:26.466Z,99116.60
2023-11-14T03:07:13.284Z,99105.89
2023-11-14T03:10:00.700Z,99104.14
2023-11-14T03:12:47.538Z,99103.04
2023-11-14T03:15:34.432Z,99097.21
2023-11-14T03:18:21.267Z,99098.73
2023-11-14T03:21:07.740Z,99096.67
2023-11-14T03:23:54.600Z,99101.37
2023-11-14T03:26:41.488Z,99105.05
2023-11-14T03:29:27.789Z,99110.48
2023-11-14T03:32:14.884Z,99107.08
2023-11-14T03:35:06.748Z,99113.30
2023-11-14T03:37:54.587Z,99109.23
2023-11-14T03:40:41.108Z,99116.05
2023-11-14T03:43:27.989Z,99112.14
2023-11-14T03:46:14.939Z,99114.65
2023-11-14T03:49:02.015Z,99116.85
2023-11-14T03:51:49.088Z,99114.59
2023-11-14T03:54:37.981Z,99115.33
2023-11-14T03:57:24.614Z,99114.15
2023-11-14T04:00:12.577Z,99119.13
2023-11-14T04:03:02.698Z,99114.31
2023-11-14T04:05:50.946Z,99111.09
2023-11-14T04:08:38.873Z,99114.65
2023-11-14T04:11:25.216Z,99120.48
2023-11-14T04:14:11.998Z,99124.71
2023-11-14T04:16:58.963Z,99122.17
2023-11-14T04:19:46.142Z,99130.98
2023-11-14T04:22:33.136Z,99132.95
2023-11-14T04:25:19.878Z,99141.82
2023-11-14T04:28:06.814Z,99144.16
2023-11-14T04:30:53.913Z,99138.52
2023-11-14T04:33:40.532Z,99140.61
2023-11-14T04:36:27.564Z,99141.12
2023-11-14T04:39:14.771Z,99141.49
2023-11-14T04:42:02.318Z,99145.55
2023-11-14T04:44:52.949Z,99151.46
2023-11-14T04:47:40.011Z,99152.48
2023-11-14T04:50:26.639Z,99154.34
2023-11-14T04:53:13.148Z,99152.65
2023-11-14T04:55:59.921Z,99153.89
2023-11-14T04:58:46.826Z,99152.63
2023-11-14T05:01:34.175Z,99155.67
2023-11-14T05:04:20.869Z,99163.45
2023-11-14T05:07:07.414Z,99166.89
2023-11-14T05:09:54.328Z,99162.65
2023-11-14T05:12:41.293Z,99164.50
2023-11-14T05:15:27.800Z,99170.50
2023-11-14T05:18:14.546Z,99174.39
2023-11-14T05:21:01.465Z,99178.59
2023-11-14T05:23:47.957Z,99183.67
2023-11-14T05:26:34.483Z,99186.67
2023-11-14T05:29:21.457Z,99188.42
2023-11-14T05:32:10.696Z,99190.19
2023-11-14T05:34:57.301Z,99186.67
2023-11-14T05:37:45.633Z,99186.64
2023-11-14T05:40:32.899Z,99188.73
2023-11-14T05:43:20.580Z,99190.98
2023-11-14T05:46:07.741Z,99194.08
2023-11-14T05:48:55.041Z,99190.20
2023-11-14T05:51:42.571Z,99193.27
2023-11-14T05:54:29.088Z,99191.27
2023-11-14T05:57:17.891Z,99191.34
2023-11-14T06:00:06.175Z,99188.80
2023-11-14T06:02:58.625Z,99192.16
2023-11-14T06:05:45.304Z,99192.09
2023-11-14T06:08:32.400Z,99194.08
2023-11-14T06:11:19.148Z,99194.70
2023-11-14T06:14:05.994Z,99189.98
2023-11-14T06:16:52.965Z,99190.08
2023-11-14T06:19:39.749Z,99194.55
2023-11-14T06:22:26.680Z,99196.72
2023-11-14T06:25:13.538Z,99197.83
2023-11-14T06:28:00.216Z,99201.61
2023-11-14T06:30:46.688Z,99205.67
2023-11-14T06:33:34.389Z,99208.65
2023-11-14T06:36:22.010Z,99215.36
2023-11-14T06:39:08.672Z,99215.71
2023-11-14T06:41:55.714Z,99218.88
2023-11-14T06:44:46.031Z,99221.36
2023-11-14T06:47:33.210Z,99224.34
2023-11-14T06:50:29.598Z,99225.02
2023-11-14T06:53:24.198Z,99226.45
2023-11-14T06:56:15.196Z,99221.66
2023-11-14T06:59:01.870Z,99224.70
2023-11-14T07:01:53.763Z,99221.38
2023-11-14T07:04:41.113Z,99225.15
2023-11-14T07:07:28.125Z,99223.65
2023-11-14T07:10:15.476Z,99221.11
2023-11-14T07:13:03.659Z,99225.47
2023-11-14T07:15:50.238Z,99226.73
2023-11-14T07:18:38.782Z,99223.59
2023-11-14T07:21:25.444Z,99218.05
2023-11-14T07:24:12.717Z,99217.73
2023-11-14T07:26:59.678Z,99213.17
2023-11-14T07:29:47.307Z,99212.30
2023-11-14T07:32:34.422Z,99214.44
2023-11-14T07:35:22.825Z,99214.50
2023-11-14T07:38:09.858Z,99216.23
2023-11-14T07:40:56.399Z,99215.34
2023-11-14T07:43:42.847Z,99213.36
2023-11-14T07:46:29.609Z,99210.81
2023-11-14T07:49:16.616Z,99206.39
2023-11-14T07:52:03.123Z,99208.88
2023-11-14T07:54:50.938Z,99205.88
2023-11-14T07:57:37.687Z,99198.14
2023-11-14T08:00:25.416Z,99206.26
2023-11-14T08:03:12.401Z,99202.53
2023-11-14T08:05:59.055Z,99202.38
2023-11-14T08:08:45.950Z,99207.39
2023-11-14T08:11:39.663Z,99196.44
2023-11-14T08:14:26.267Z,99202.18
2023-11-14T08:17:12.943Z,99200.80
2023-11-14T08:20:00.550Z,99196.77
2023-11-14T08:22:47.390Z,99201.11
2023-11-14T08:25:34.395Z,99191.21
2023-11-14T08:28:21.516Z,99191.05
2023-11-14T08:31:08.349Z,99195.48
2023-11-14T08:33:56.511Z,99202.25
2023-11-14T08:36:44.242Z,99206.83
2023-11-14T08:39:31.062Z,99209.48
2023-11-14T08:42:18.706Z,99206.77
2023-11-14T08:45:05.936Z,99211.89
2023-11-14T08:47:52.369Z,99211.04
2023-11-14T08:50:40.667Z,99215.52
2023-11-14T08:53:27.211Z,99211.71
2023-11-14T08:56:14.000Z,99206.55
2023-11-14T08:59:01.075Z,99206.95
2023-11-14T09:01:49.095Z,99205.98
2023-11-14T09:04:35.833Z,99207.73
2023-11-14T09:07:22.455Z,99210.84
2023-11-14T09:10:09.786Z,99209.59
2023-11-14T09:12:57.890Z,99198.80
2023-11-14T09:15:44.673Z,99209.92
2023-11-14T09:18:33.561Z,99208.44
2023-11-14T09:21:21.160Z,99212.87
2023-11-14T09:24:11.113Z,99207.15
2023-11-14T09:26:58.276Z,99204.74
2023-11-14T09:29:44.766Z,99204.47
2023-11-14T09:32:32.093Z,99202.36
2023-11-14T09:35:19.375Z,99203.95
2023-11-14T09:38:06.712Z,99194.98
2023-11-14T09:40:54.725Z,99185.83
2023-11-14T09:43:42.115Z,99181.13
2023-11-14T09:46:32.706Z,99178.44
2023-11-14T09:49:19.757Z,99184.93
2023-11-14T09:52:07.128Z,99190.58
2023-11-14T09:54:54.160Z,99196.12
2023-11-14T09:57:41.144Z,99185.16
2023-11-14T10:00:29.845Z,99192.63
2023-11-14T10:03:17.630Z,99192.15
2023-11-14T10:06:05.170Z,99193.92
2023-11-14T10:08:58.331Z,99190.80
2023-11-14T10:12:12.024Z,99182.63
2023-11-14T10:14:55.307Z,99167.45
2023-11-14T10:17:49.290Z,99153.63
2023-11-14T10:23:40.237Z,99145.02
2023-11-14T10:26:28.483Z,99149.64
2023-11-14T10:29:19.148Z,99139.73
2023-11-14T10:32:13.002Z,99133.85
2023-11-14T10:35:18.024Z,99135.69
2023-11-14T10:38:19.846Z,99137.70
2023-11-14T10:41:07.346Z,99131.93
2023-11-14T10:43:54.467Z,99134.38
2023-11-14T10:46:54.072Z,99134.55
2023-11-14T10:49:47.267Z,99131.04
2023-11-14T10:52:37.209Z,99126.84
2023-11-14T10:55:25.563Z,99126.41
2023-11-14T10:58:14.717Z,99133.99
2023-11-14T11:01:04.237Z,99139.10
2023-11-14T11:03:54.571Z,99130.50
2023-11-14T11:06:41.888Z,99135.85
2023-11-14T11:09:28.720Z,99133.04
2023-11-14T11:12:16.408Z,99135.77
2023-11-14T11:15:04.078Z,99136.67
2023-11-14T11:17:59.643Z,99137.46
2023-11-14T11:20:46.248Z,99152.63
2023-11-14T11:24:30.107Z,99147.67
2023-11-14T11:27:26.483Z,99141.74
2023-11-14T11:30:14.661Z,99140.52
2023-11-14T11:33:34.398Z,99150.10
2023-11-14T11:36:24.937Z,99143.54
2023-11-14T11:39:12.020Z,99143.93
2023-11-14T11:42:00.543Z,99142.51
2023-11-14T11:44:47.134Z,99145.02
2023-11-14T11:47:38.374Z,99143.59
2023-11-14T11:50:34.316Z,99146.52
2023-11-14T11:53:41.677Z,99145.02
2023-11-14T11:56:37.437Z,99145.63
2023-11-14T11:59:25.656Z,99128.53
2023-11-14T12:02:14.666Z,99133.25
2023-11-14T12:05:03.401Z,99146.58
2023-11-14T12:07:50.667Z,99134.91
2023-11-14T12:10:37.701Z,99142.02
2023-11-14T12:13:28.519Z,99146.02
2023-11-14T12:16:15.585Z,99149.96
2023-11-14T12:19:03.185Z,99151.17
2023-11-14T12:21:50.765Z,99148.11
2023-11-14T12:24:37.796Z,99153.27
2023-11-14T12:27:24.438Z,99156.15
2023-11-14T12:30:14.287Z,99151.79
2023-11-14T12:33:08.540Z,99155.13
2023-11-14T12:35:58.946Z,99155.64
2023-11-14T12:38:45.832Z,99154.64
2023-11-14T12:41:33.525Z,99162.31
2023-11-14T12:44:20.590Z,99156.75
2023-11-14T12:47:12.066Z,99159.34
2023-11-14T12:49:58.681Z,99165.03
2023-11-14T12:52:45.354Z,99167.59
2023-11-14T12:55:31.871Z,99159.30
2023-11-14T12:58:18.541Z,99153.89
2023-11-14T13:01:04.866Z,99144.98
2023-11-14T13:03:51.658Z,99140.71
2023-11-14T13:06:39.700Z,99135.05
2023-11-14T13:09:27.828Z,99125.16
2023-11-14T13:12:14.893Z,99129.62
2023-11-14T13:15:01.602Z,99131.34
2023-11-14T13:17:48.933Z,99140.58
2023-11-14T13:20:35.617Z,99139.71
2023-11-14T13:23:23.114Z,99123.57
2023-11-14T13:26:11.200Z,99124.12
2023-11-14T13:28:58.032Z,99129.02
2023-11-14T13:31:44.873Z,99140.73
2023-11-14T13:34:36.311Z,99136.31
2023-11-14T13:37:23.663Z,99124.96
2023-11-14T13:40:12.558Z,99119.09
2023-11-14T13:42:59.221Z,99106.30
2023-11-14T13:45:46.580Z,99106.55
2023-11-14T13:48:34.731Z,99107.65
2023-11-14T13:51:21.577Z,99111.40
2023-11-14T13:54:11.006Z,99106.27
2023-11-14T13:56:58.834Z,99112.13
2023-11-14T13:59:46.822Z,99111.64
2023-11-14T14:02:36.129Z,99123.64
2023-11-14T14:05:22.795Z,99129.06
2023-11-14T14:08:10.845Z,99136.55
2023-11-14T14:10:57.896Z,99144.48
2023-11-14T14:13:44.466Z,99139.94
2023-11-14T14:16:30.877Z,99145.59
2023-11-14T14:19:18.646Z,99139.98
2023-11-14T14:22:06.262Z,99134.15
2023-11-14T14:24:52.753Z,99134.33
2023-11-14T14:27:39.214Z,99132.21
2023-11-14T14:30:26.380Z,99130.16
2023-11-14T14:33:13.105Z,99129.30
2023-11-14T14:35:59.788Z,99129.06
2023-11-14T14:38:47.886Z,99132.85
2023-11-14T14:41:37.963Z,99131.31
2023-11-14T14:44:27.464Z,99133.61
2023-11-14T14:47:15.159Z,99126.02
2023-11-14T14:50:06.209Z,99127.80
2023-11-14T14:52:54.906Z,99126.73
2023-11-14T14:55:41.460Z,99125.49
2023-11-14T14:58:27.848Z,99125.67
2023-11-14T15:01:15.358Z,99123.90
2023-11-14T15:04:02.363Z,99124.92
2023-11-14T15:06:49.113Z,99124.02
2023-11-14T15:09:35.951Z,99135.47
2023-11-14T15:12:23.427Z,99140.77
2023-11-14T15:15:12.057Z,99137.59
2023-11-14T15:17:59.962Z,99129.98
2023-11-14T15:20:47.872Z,99123.60
2023-11-14T15:23:34.592Z,99128.15
2023-11-14T15:26:23.556Z,99130.30
2023-11-14T15:29:10.894Z,99143.12
2023-11-14T15:31:58.125Z,99151.08
2023-11-14T15:34:44.677Z,99141.18
2023-11-14T15:37:30.965Z,99133.78
2023-11-14T15:40:19.337Z,99146.23
2023-11-14T15:43:06.448Z,99158.23
2023-11-14T15:45:53.268Z,99152.09
2023-11-14T15:48:39.910Z,99148.95
2023-11-14T15:51:26.895Z,99149.47
2023-11-14T15:54:13.662Z,99145.77
2023-11-14T15:57:00.488Z,99146.85
2023-11-14T15:59:48.249Z,99147.56
2023-11-14T16:02:34.835Z,99149.50
2023-11-14T16:05:21.572Z,99151.59
2023-11-14T16:08:08.884Z,99162.71
2023-11-14T16:10:58.619Z,99166.91
2023-11-14T16:13:45.383Z,99164.13
2023-11-14T16:16:32.532Z,99165.16
2023-11-14T16:19:22.751Z,99154.42
2023-11-14T16:22:09.666Z,99151.44
2023-11-14T16:24:56.628Z,99154.26
2023-11-14T16:27:43.647Z,99160.46
2023-11-14T16:30:30.842Z,99169.81
2023-11-14T16:33:17.470Z,99151.80
2023-11-14T16:36:05.392Z,99160.84
2023-11-14T16:38:52.176Z,99164.90
2023-11-14T16:41:39.038Z,99155.54
2023-11-14T16:44:26.505Z,99156.47
2023-11-14T16:47:13.713Z,99159.60
2023-11-14T16:50:00.622Z,99156.02
2023-11-14T16:52:48.059Z,99160.16
2023-11-14T16:55:38.528Z,99158.20
2023-11-14T16:58:25.319Z,99149.02
2023-11-14T17:01:13.303Z,99148.23
2023-11-14T17:04:01.825Z,99154.80
2023-11-14T17:06:49.663Z,99153.05
2023-11-14T17:09:36.155Z,99151.33
2023-11-14T17:12:22.875Z,99152.92
2023-11-14T17:15:10.334Z,99153.27
2023-11-14T17:17:57.051Z,99150.55
2023-11-14T17:20:43.701Z,99138.83
2023-11-14T17:23:30.625Z,99128.72
2023-11-14T17:26:21.308Z,99129.66
2023-11-14T17:29:09.872Z,99140.77
2023-11-14T17:32:00.648Z,99138.32
2023-11-14T17:34:48.437Z,99140.31
2023-11-14T17:37:37.246Z,99135.38
2023-11-14T17:40:23.569Z,99135.73
2023-11-14T17:43:10.362Z,99126.95
2023-11-14T17:45:57.009Z,99123.09
2023-11-14T17:48:44.578Z,99122.86
2023-11-14T17:51:38.430Z,99129.49
2023-11-14T17:54:26.569Z,99121.73
2023-11-14T17:57:14.445Z,99124.27
2023-11-14T18:00:01.310Z,99118.98
2023-11-14T18:02:48.618Z,99123.63
2023-11-14T18:05:35.664Z,99119.23
2023-11-14T18:08:22.794Z,99120.02
2023-11-14T18:11:09.685Z,99118.81
2023-11-14T18:13:56.509Z,99121.63
2023-11-14T18:16:44.076Z,99122.21
2023-11-14T18:19:31.009Z,99123.14
2023-11-14T18:22:17.846Z,99130.72
2023-11-14T18:25:05.574Z,99129.66
2023-11-14T18:27:52.023Z,99131.27
2023-11-14T18:30:38.891Z,99127.42
2023-11-14T18:33:25.506Z,99130.84
2023-11-14T18:36:12.587Z,99128.52
2023-11-14T18:38:59.425Z,99127.63
2023-11-14T18:41:46.450Z,99131.17
2023-11-14T18:44:34.368Z,99132.72
2023-11-14T18:47:22.289Z,99129.31
2023-11-14T18:50:10.439Z,99134.95
2023-11-14T18:52:57.221Z,99136.55
2023-11-14T18:55:45.711Z,99133.83
2023-11-14T18:58:32.217Z,99134.03
2023-11-14T19:01:23.068Z,99129.83
2023-11-14T19:04:10.072Z,99129.08
2023-11-14T19:06:56.942Z,99129.11
2023-11-14T19:09:45.018Z,99123.39
2023-11-14T19:12:31.503Z,99131.57
2023-11-14T19:15:18.659Z,99130.31
2023-11-14T19:18:05.549Z,99131.90
2023-11-14T19:21:21.435Z,99131.70
2023-11-14T19:24:00.048Z,99135.40
2023-11-14T19:26:47.888Z,99124.16
2023-11-14T19:29:34.483Z,99133.72
2023-11-14T19:32:21.055Z,99128.59
2023-11-14T19:35:08.165Z,99132.09
2023-11-14T19:37:55.142Z,99129.39
2023-11-14T19:40:41.712Z,99127.02
2023-11-14T19:43:30.000Z,99125.55
2023-11-14T19:46:16.615Z,99130.70
2023-11-14T19:49:03.489Z,99133.67
2023-11-14T19:51:54.734Z,99128.53
2023-11-14T19:54:45.477Z,99127.77
2023-11-14T19:57:33.032Z,99131.50
2023-11-14T20:00:22.762Z,99131.16
2023-11-14T20:03:09.546Z,99135.91
2023-11-14T20:05:56.478Z,99131.00
2023-11-14T20:08:43.436Z,99129.73
2023-11-14T20:11:30.760Z,99131.54
2023-11-14T20:14:19.026Z,99130.83
2023-11-14T20:17:07.392Z,99135.58
2023-11-14T20:19:57.098Z,99131.70
2023-11-14T20:22:44.191Z,99133.14
2023-11-14T20:25:31.206Z,99138.45
2023-11-14T20:28:18.581Z,99144.80
2023-11-14T20:31:05.698Z,99134.56
2023-11-14T20:33:52.492Z,99131.69
2023-11-14T20:36:39.101Z,99130.77
2023-11-14T20:39:25.971Z,99124.92
2023-11-14T20:42:12.568Z,99125.05
2023-11-14T20:44:59.204Z,99128.55
2023-11-14T20:47:46.297Z,99136.11
2023-11-14T20:50:33.290Z,99135.64
2023-11-14T20:53:19.793Z,99134.77
2023-11-14T20:56:07.298Z,99136.90
2023-11-14T20:58:54.802Z,99137.78
2023-11-14T21:01:41.333Z,99139.52
2023-11-14T21:04:29.012Z,99137.73
2023-11-14T21:07:18.106Z,99135.23
2023-11-14T21:10:05.391Z,99132.77
2023-11-14T21:12:52.028Z,99137.70
2023-11-14T21:15:39.077Z,99134.86
2023-11-14T21:18:25.839Z,99138.21
2023-11-14T21:21:12.763Z,99139.75
2023-11-14T21:24:00.089Z,99136.72
2023-11-14T21:26:46.758Z,99136.50
2023-11-14T21:29:33.758Z,99140.34
2023-11-14T21:32:20.991Z,99142.75
2023-11-14T21:35:09.332Z,99141.14
2023-11-14T21:37:55.829Z,99143.43
2023-11-14T21:40:42.995Z,99147.30
2023-11-14T21:43:30.641Z,99147.48
2023-11-14T21:46:17.294Z,99150.17
2023-11-14T21:49:06.267Z,99148.80
2023-11-14T21:51:53.457Z,99151.48
2023-11-14T21:54:40.197Z,99154.50
2023-11-14T21:57:26.760Z,99149.93
2023-11-14T22:00:14.974Z,99145.59
2023-11-14T22:03:01.571Z,99156.27
2023-11-14T22:05:50.752Z,99156.48
2023-11-14T22:08:37.678Z,99156.13
2023-11-14T22:11:24.450Z,99152.30
2023-11-14T22:14:12.069Z,99150.45
2023-11-14T22:16:58.868Z,99157.94
2023-11-14T22:19:46.627Z,99156.87
2023-11-14T22:22:33.268Z,99160.54
2023-11-14T22:25:19.995Z,99164.98
2023-11-14T22:28:06.461Z,99163.93
2023-11-14T22:30:53.398Z,99169.04
2023-11-14T22:33:39.873Z,99169.18
2023-11-14T22:36:26.864Z,99177.27
2023-11-14T22:39:16.263Z,99180.91
2023-11-14T22:42:05.326Z,99177.86
2023-11-14T22:44:52.056Z,99178.52
2023-11-14T22:47:39.305Z,99182.19
2023-11-14T22:50:26.018Z,99187.29
2023-11-14T22:53:13.366Z,99191.17
2023-11-14T22:56:00.255Z,99189.73
2023-11-14T22:58:47.752Z,99193.45
2023-11-14T23:01:38.318Z,99195.00
2023-11-14T23:04:26.633Z,99199.03
2023-11-14T23:07:13.597Z,99199.39
2023-11-14T23:10:00.578Z,99196.20
2023-11-14T23:12:47.517Z,99195.45
2023-11-14T23:15:34.069Z,99198.29
2023-11-14T23:18:21.386Z,99198.83
2023-11-14T23:21:08.444Z,99194.13
2023-11-14T23:23:55.183Z,99201.16
2023-11-14T23:26:42.900Z,99198.98
2023-11-14T23:29:29.616Z,99202.93
2023-11-14T23:32:16.436Z,99206.00
2023-11-14T23:35:03.722Z,99206.68
2023-11-14T23:37:50.232Z,99209.87
2023-11-14T23:40:37.468Z,99213.69
2023-11-14T23:43:24.255Z,99217.14
2023-11-14T23:46:11.629Z,99214.19
2023-11-14T23:48:58.406Z,99215.88
2023-11-14T23:51:45.085Z,99212.88
2023-11-14T23:54:32.614Z,99214.33
2023-11-14T23:57:19.613Z,99218.33
